createdAt,value
2022-12-06T00:03:15.608Z,2.82
2022-12-06T00:08:17.331Z,2.85
2022-12-06T00:13:18.932Z,2.87
2022-12-06T00:18:20.500Z,2.90
2022-12-06T00:23:22.076Z,2.94
2022-12-06T00:28:23.637Z,2.92
2022-12-06T00:33:25.698Z,2.90
2022-12-06T00:38:28.535Z,2.86
2022-12-06T00:43:30.884Z,2.98
2022-12-06T00:48:32.567Z,2.98
2022-12-06T00:53:34.152Z,2.95
2022-12-06T00:58:35.785Z,2.88
2022-12-06T01:03:37.842Z,2.90
2022-12-06T01:08:40.503Z,2.89
2022-12-06T01:13:43.348Z,2.86
2022-12-06T01:18:46.279Z,2.94
2022-12-06T01:23:48.467Z,2.92
2022-12-06T01:28:50.355Z,2.95
2022-12-06T01:33:52.276Z,2.96
2022-12-06T01:38:56.591Z,3.00
2022-12-06T01:43:58.198Z,3.00
2022-12-06T01:49:11.412Z,3.03
2022-12-06T01:54:16.047Z,2.89
2022-12-06T01:59:18.209Z,2.89
2022-12-06T02:04:20.594Z,2.90
2022-12-06T02:09:23.226Z,2.95
2022-12-06T02:14:32.552Z,3.07
2022-12-06T02:19:46.238Z,3.01
2022-12-06T02:24:53.787Z,2.92
2022-12-06T02:30:18.839Z,2.98
2022-12-06T02:35:35.072Z,2.90
2022-12-06T02:40:41.384Z,2.92
2022-12-06T02:45:52.637Z,2.91
2022-12-06T02:51:01.727Z,2.88
2022-12-06T02:56:03.485Z,2.78
2022-12-06T03:01:12.783Z,2.74
2022-12-06T03:06:23.467Z,2.69
2022-12-06T03:11:33.759Z,2.75
2022-12-06T03:16:45.941Z,2.80
2022-12-06T03:22:03.170Z,2.67
2022-12-06T03:27:09.653Z,2.64
2022-12-06T03:32:14.827Z,2.68
2022-12-06T03:37:21.595Z,2.73
2022-12-06T03:42:23.253Z,2.80
2022-12-06T03:47:38.084Z,2.80
2022-12-06T03:52:39.703Z,2.78
2022-12-06T03:57:41.326Z,2.80
2022-12-06T04:02:42.993Z,2.80
2022-12-06T04:07:44.591Z,2.86
2022-12-06T04:13:01.554Z,2.81
2022-12-06T04:18:13.529Z,2.84
2022-12-06T04:23:15.411Z,2.91
2022-12-06T04:28:35.530Z,2.94
2022-12-06T04:33:55.703Z,2.91
2022-12-06T04:38:57.577Z,2.89
2022-12-06T04:43:59.241Z,2.82
2022-12-06T04:49:00.875Z,2.84
2022-12-06T04:54:02.485Z,2.74
2022-12-06T04:59:04.079Z,2.89
2022-12-06T05:04:05.866Z,2.88
2022-12-06T05:09:07.670Z,2.78
2022-12-06T05:14:09.325Z,2.84
2022-12-06T05:19:13.172Z,2.75
2022-12-06T05:24:14.749Z,2.72
2022-12-06T05:29:16.482Z,2.72
2022-12-06T05:34:18.060Z,2.67
2022-12-06T05:39:19.615Z,2.63
2022-12-06T05:44:21.206Z,2.71
2022-12-06T05:49:22.808Z,2.76
2022-12-06T05:54:24.403Z,2.78
2022-12-06T05:59:25.993Z,2.77
2022-12-06T06:04:27.576Z,2.81
2022-12-06T06:09:29.150Z,2.75
2022-12-06T06:14:30.730Z,2.78
2022-12-06T06:19:32.297Z,2.77
2022-12-06T06:24:38.722Z,2.77
2022-12-06T06:29:45.135Z,2.80
2022-12-06T06:34:47.206Z,2.81
2022-12-06T06:39:48.912Z,2.76
2022-12-06T06:44:51.803Z,2.72
2022-12-06T06:49:53.415Z,2.64
2022-12-06T06:54:55.201Z,2.70
2022-12-06T06:59:56.783Z,2.73
2022-12-06T07:04:58.421Z,2.68
2022-12-06T07:10:00.368Z,2.63
2022-12-06T07:15:02.197Z,2.66
2022-12-06T07:20:04.914Z,2.59
2022-12-06T07:25:06.694Z,2.63
2022-12-06T07:30:08.774Z,2.66
2022-12-06T07:35:10.815Z,2.59
2022-12-06T07:40:14.603Z,2.51
2022-12-06T07:45:16.211Z,2.54
2022-12-06T07:50:20.574Z,2.54
2022-12-06T07:55:22.215Z,2.53
2022-12-06T08:00:23.966Z,2.53
2022-12-06T08:05:25.538Z,2.58
2022-12-06T08:10:27.676Z,2.63
2022-12-06T08:15:29.361Z,2.63
2022-12-06T08:20:31.029Z,2.68
2022-12-06T08:25:32.675Z,2.68
2022-12-06T08:30:34.351Z,2.57
2022-12-06T08:35:39.186Z,2.50
2022-12-06T08:40:41.015Z,2.44
2022-12-06T08:45:43.497Z,2.44
2022-12-06T08:50:45.063Z,2.43
2022-12-06T08:56:02.213Z,2.42
2022-12-06T09:01:16.543Z,2.38
2022-12-06T09:06:19.747Z,2.38
2022-12-06T09:11:21.380Z,2.39
2022-12-06T09:16:24.015Z,2.34
2022-12-06T09:21:30.402Z,2.28
2022-12-06T09:26:32.439Z,2.31
2022-12-06T09:31:35.557Z,2.23
2022-12-06T09:36:43.201Z,2.10
2022-12-06T09:42:00.074Z,2.14
2022-12-06T09:47:07.686Z,2.10
2022-12-06T09:52:15.601Z,2.05
2022-12-06T09:57:25.064Z,2.04
2022-12-06T10:02:47.807Z,1.97
2022-12-06T10:08:01.621Z,1.99
2022-12-06T10:13:07.056Z,2.01
2022-12-06T10:18:33.480Z,2.02
2022-12-06T10:23:47.441Z,1.96
2022-12-06T10:29:08.734Z,1.93
2022-12-06T10:34:41.999Z,1.79
2022-12-06T10:39:57.885Z,1.80
2022-12-06T10:45:37.139Z,1.67
2022-12-06T10:50:41.076Z,1.74
2022-12-06T10:55:49.843Z,1.69
2022-12-06T11:00:58.281Z,1.75
2022-12-06T11:06:02.498Z,1.72
2022-12-06T11:11:06.710Z,1.74
2022-12-06T11:16:34.409Z,1.76
2022-12-06T11:21:48.858Z,1.68
2022-12-06T11:27:04.619Z,1.72
2022-12-06T11:32:07.883Z,1.66
2022-12-06T11:37:18.082Z,1.79
2022-12-06T11:42:25.313Z,1.77
2022-12-06T11:47:27.083Z,1.76
2022-12-06T11:52:45.442Z,1.76
2022-12-06T11:58:13.122Z,1.78
2022-12-06T12:03:30.331Z,1.73
2022-12-06T12:08:32.905Z,1.76
2022-12-06T12:13:44.168Z,1.77
2022-12-06T12:18:54.062Z,1.64
2022-12-06T12:23:56.249Z,1.60
2022-12-06T12:29:06.154Z,1.60
2022-12-06T12:34:26.711Z,1.65
2022-12-06T12:39:50.333Z,1.67
2022-12-06T12:44:57.648Z,1.67
2022-12-06T12:50:14.657Z,1.73
2022-12-06T12:55:30.610Z,1.65
2022-12-06T13:00:37.437Z,1.54
2022-12-06T13:05:46.529Z,1.63
2022-12-06T13:10:58.494Z,1.61
2022-12-06T13:16:07.308Z,1.53
2022-12-06T13:21:22.351Z,1.46
2022-12-06T13:26:33.517Z,1.45
2022-12-06T13:31:39.799Z,1.44
2022-12-06T13:36:41.465Z,1.40
2022-12-06T13:42:01.558Z,1.36
2022-12-06T13:47:27.977Z,1.37
2022-12-06T13:52:41.858Z,1.35
2022-12-06T13:57:43.491Z,1.37
2022-12-06T14:02:46.465Z,1.40
2022-12-06T14:07:48.231Z,1.40
2022-12-06T14:12:59.285Z,1.36
2022-12-06T14:18:05.442Z,1.28
2022-12-06T14:23:45.423Z,1.23
2022-12-06T14:28:48.986Z,1.19
2022-12-06T14:33:52.070Z,1.18
2022-12-06T14:39:17.268Z,1.22
2022-12-06T14:44:20.648Z,1.16
2022-12-06T14:49:42.331Z,1.16
2022-12-06T14:54:45.535Z,1.10
2022-12-06T15:05:32.225Z,1.08
2022-12-06T15:10:34.697Z,1.03
2022-12-06T15:15:45.845Z,1.02
2022-12-06T15:20:48.891Z,1.06
2022-12-06T15:25:50.465Z,1.07
2022-12-06T15:30:52.624Z,1.10
2022-12-06T15:35:54.632Z,1.07
2022-12-06T15:40:56.981Z,1.03
2022-12-06T15:46:01.463Z,1.05
2022-12-06T15:51:09.257Z,1.07
2022-12-06T15:56:20.608Z,1.02
2022-12-06T16:01:26.464Z,0.98
2022-12-06T16:06:29.401Z,0.98
2022-12-06T16:11:31.026Z,1.01
2022-12-06T16:16:33.930Z,0.96
2022-12-06T16:21:51.076Z,1.00
2022-12-06T16:26:52.664Z,1.00
2022-12-06T16:31:54.476Z,1.01
2022-12-06T16:37:02.000Z,0.98
2022-12-06T16:42:04.471Z,0.99
2022-12-06T16:47:07.821Z,0.97
2022-12-06T16:52:09.540Z,0.93
2022-12-06T16:57:12.141Z,0.91
2022-12-06T17:02:26.426Z,0.92
2022-12-06T17:07:28.541Z,0.87
2022-12-06T17:12:30.104Z,0.85
2022-12-06T17:17:31.894Z,0.85
2022-12-06T17:22:34.806Z,0.86
2022-12-06T17:27:38.372Z,0.86
2022-12-06T17:32:40.142Z,0.84
2022-12-06T17:37:41.711Z,0.80
2022-12-06T17:43:01.403Z,0.80
2022-12-06T17:48:03.059Z,0.85
2022-12-06T17:53:04.845Z,0.81
2022-12-06T17:58:06.926Z,0.82
2022-12-06T18:03:08.545Z,0.85
2022-12-06T18:08:10.248Z,0.87
2022-12-06T18:13:11.862Z,0.85
2022-12-06T18:18:13.523Z,0.90
2022-12-06T18:23:15.101Z,0.95
2022-12-06T18:28:16.707Z,0.98
2022-12-06T18:33:21.032Z,0.92
2022-12-06T18:38:24.206Z,0.83
2022-12-06T18:43:25.779Z,0.84
2022-12-06T18:48:28.028Z,0.72
2022-12-06T18:53:30.010Z,0.64
2022-12-06T18:58:31.689Z,0.63
2022-12-06T19:03:33.255Z,0.69
2022-12-06T19:08:34.902Z,0.75
2022-12-06T19:13:36.468Z,0.81
2022-12-06T19:18:38.110Z,0.86
2022-12-06T19:23:39.810Z,0.92
2022-12-06T19:28:41.747Z,0.99
2022-12-06T19:33:46.264Z,1.01
2022-12-06T19:38:48.253Z,0.96
2022-12-06T19:44:08.435Z,1.02
2022-12-06T19:49:11.656Z,1.06
2022-12-06T19:54:30.934Z,1.06
2022-12-06T19:59:35.127Z,1.09
2022-12-06T20:04:39.425Z,1.10
2022-12-06T20:09:41.330Z,1.04
2022-12-06T20:14:45.827Z,1.03
2022-12-06T20:19:48.994Z,1.06
2022-12-06T20:24:50.606Z,1.05
2022-12-06T20:29:52.216Z,1.01
2022-12-06T20:34:53.789Z,1.01
2022-12-06T20:39:55.583Z,1.00
2022-12-06T20:44:57.159Z,1.00
2022-12-06T20:49:59.167Z,1.01
2022-12-06T20:55:00.936Z,1.00
2022-12-06T21:00:07.383Z,1.00
2022-12-06T21:05:09.517Z,0.99
2022-12-06T21:10:11.672Z,1.00
2022-12-06T21:15:13.261Z,1.13
2022-12-06T21:20:14.892Z,1.16
2022-12-06T21:25:16.614Z,1.13
2022-12-06T21:30:18.237Z,1.08
2022-12-06T21:35:19.894Z,1.00
2022-12-06T21:40:21.454Z,0.97
2022-12-06T21:45:23.032Z,1.01
2022-12-06T21:50:24.613Z,1.12
2022-12-06T21:55:26.610Z,1.08
2022-12-06T22:00:28.229Z,1.06
2022-12-06T22:05:29.804Z,1.08
2022-12-06T22:10:31.403Z,1.02
2022-12-06T22:15:32.980Z,1.02
2022-12-06T22:20:34.549Z,1.05
2022-12-06T22:25:39.571Z,1.09
2022-12-06T22:30:41.149Z,1.11
2022-12-06T22:35:43.364Z,1.10
2022-12-06T22:40:44.943Z,1.08
2022-12-06T22:45:46.526Z,1.02
2022-12-06T22:50:48.094Z,1.18
2022-12-06T22:55:49.679Z,1.17
2022-12-06T23:00:51.244Z,1.23
2022-12-06T23:05:58.207Z,1.24
2022-12-06T23:11:06.172Z,1.21
2022-12-06T23:16:11.898Z,1.11
2022-12-06T23:21:15.319Z,1.00
2022-12-06T23:26:28.888Z,1.01
2022-12-06T23:31:33.517Z,0.95
2022-12-06T23:36:36.057Z,0.91
2022-12-06T23:41:37.981Z,0.90
2022-12-06T23:46:41.078Z,0.91
2022-12-06T23:51:42.800Z,0.84
2022-12-06T23:56:45.132Z,0.85
